Time;durP1;ratioP1;P1;durP2;ratioP2;P2;SDS_P1;SDS_P2;PMS_P1;PMS_P2;Temp;Humidity;BMP_temperature;BMP_pressure;BME280_temperature;BME280_humidity;BME280_pressure;Samples;Min_cycle;Max_cycle;Signal;HPM_P1;HPM_P2
2023/08/18 00:01:22;;;;;;;10.00;5.07;;;;;;;;;;5047174;28;20498;-87
2023/08/18 00:03:48;;;;;;;10.30;5.07;;;;;;;;;;5064442;28;20025;-87
2023/08/18 00:06:14;;;;;;;9.00;4.15;;;;;;;;;;5044127;28;20029;-87
2023/08/18 00:08:40;;;;;;;7.53;4.45;;;;;;;;;;5049005;28;20033;-87
2023/08/18 00:11:08;;;;;;;6.68;4.22;;;;;;;;;;5057938;28;20032;-86
2023/08/18 00:13:34;;;;;;;7.68;3.50;;;;;;;;;;5065587;28;20024;-87
2023/08/18 00:16:00;;;;;;;9.52;4.20;;;;;;;;;;5050866;28;20024;-86
2023/08/18 00:18:26;;;;;;;8.88;4.43;;;;;;;;;;5057773;28;20032;-88
2023/08/18 00:20:52;;;;;;;5.20;4.13;;;;;;;;;;5059366;28;20021;-87
2023/08/18 00:23:18;;;;;;;9.15;4.40;;;;;;;;;;5048167;28;20025;-88
2023/08/18 00:25:44;;;;;;;6.97;3.83;;;;;;;;;;5047901;28;20128;-86
2023/08/18 00:28:10;;;;;;;7.50;4.05;;;;;;;;;;5050794;28;20047;-87
2023/08/18 00:30:36;;;;;;;8.18;3.83;;;;;;;;;;5065347;28;20029;-86
2023/08/18 00:33:02;;;;;;;6.03;3.40;;;;;;;;;;5050216;28;20035;-87
2023/08/18 00:35:28;;;;;;;11.77;4.57;;;;;;;;;;5059007;28;20017;-86
2023/08/18 00:37:54;;;;;;;7.28;3.85;;;;;;;;;;5047222;28;20419;-86
2023/08/18 00:40:22;;;;;;;6.22;3.92;;;;;;;;;;5050935;28;20115;-86
2023/08/18 00:42:48;;;;;;;6.05;3.80;;;;;;;;;;5050605;28;20032;-86
2023/08/18 00:45:15;;;;;;;6.10;3.50;;;;;;;;;;5050789;28;20389;-86
2023/08/18 00:47:41;;;;;;;6.35;4.10;;;;;;;;;;5058460;28;20036;-86
2023/08/18 00:50:09;;;;;;;6.43;3.65;;;;;;;;;;5068286;28;20107;-87
2023/08/18 00:52:35;;;;;;;6.13;3.75;;;;;;;;;;5047207;28;20033;-86
2023/08/18 00:55:01;;;;;;;6.05;3.60;;;;;;;;;;5050537;28;20021;-86
2023/08/18 00:57:28;;;;;;;8.07;3.67;;;;;;;;;;5064995;28;20492;-87
2023/08/18 00:59:54;;;;;;;6.60;3.78;;;;;;;;;;5050250;28;20493;-86
2023/08/18 01:02:20;;;;;;;14.23;4.28;;;;;;;;;;5068153;28;20017;-87
2023/08/18 01:04:46;;;;;;;5.70;3.53;;;;;;;;;;5046506;28;20052;-87
2023/08/18 01:07:12;;;;;;;9.95;4.07;;;;;;;;;;5050720;28;20047;-86
2023/08/18 01:09:38;;;;;;;7.78;4.32;;;;;;;;;;5046576;28;20021;-87
2023/08/18 01:12:22;;;;;;;8.20;4.50;;;;;;;;;;5049289;28;20078;-86
2023/08/18 01:15:07;;;;;;;8.70;3.70;;;;;;;;;;5053469;28;20020;-86
2023/08/18 01:17:39;;;;;;;13.05;4.22;;;;;;;;;;5045596;28;20392;-86
2023/08/18 01:20:06;;;;;;;4.95;3.50;;;;;;;;;;5049417;28;20035;-86
2023/08/18 01:22:35;;;;;;;4.65;3.55;;;;;;;;;;5053603;28;20021;-87
2023/08/18 01:25:01;;;;;;;6.68;3.80;;;;;;;;;;5049985;28;20025;-87
2023/08/18 01:27:31;;;;;;;5.53;3.60;;;;;;;;;;5066930;28;20041;-87
2023/08/18 01:29:57;;;;;;;8.90;3.80;;;;;;;;;;5046669;28;20034;-86
2023/08/18 01:32:25;;;;;;;7.15;3.80;;;;;;;;;;5051488;28;20483;-87
2023/08/18 01:34:52;;;;;;;7.65;3.65;;;;;;;;;;5050929;28;20051;-86
2023/08/18 01:37:19;;;;;;;5.53;3.05;;;;;;;;;;5066828;28;20389;-87
2023/08/18 01:39:46;;;;;;;6.97;3.50;;;;;;;;;;5049008;28;20461;-86
2023/08/18 01:42:13;;;;;;;7.70;3.58;;;;;;;;;;5057910;28;20035;-87
2023/08/18 01:44:39;;;;;;;4.85;3.13;;;;;;;;;;5049473;28;20059;-86
2023/08/18 01:47:05;;;;;;;4.25;3.03;;;;;;;;;;5066244;28;20029;-85
2023/08/18 01:49:31;;;;;;;6.07;3.15;;;;;;;;;;5066716;28;20104;-85
2023/08/18 01:51:57;;;;;;;6.40;3.10;;;;;;;;;;5051728;28;20075;-85
2023/08/18 01:54:23;;;;;;;5.82;3.47;;;;;;;;;;5065887;28;20107;-85
2023/08/18 01:56:49;;;;;;;5.45;3.42;;;;;;;;;;5064798;28;20028;-86
2023/08/18 01:59:15;;;;;;;7.50;3.47;;;;;;;;;;5065461;28;20031;-86
2023/08/18 02:01:41;;;;;;;9.48;4.07;;;;;;;;;;5064038;28;20036;-86
2023/08/18 02:04:07;;;;;;;7.47;3.38;;;;;;;;;;5045603;28;20029;-86
2023/08/18 02:06:33;;;;;;;4.03;3.10;;;;;;;;;;5050221;28;20024;-86
2023/08/18 02:08:59;;;;;;;8.00;3.42;;;;;;;;;;5064305;28;20392;-86
2023/08/18 02:11:25;;;;;;;10.13;3.03;;;;;;;;;;5051819;28;20034;-86
2023/08/18 02:13:51;;;;;;;6.32;3.13;;;;;;;;;;5044705;28;20028;-86
2023/08/18 02:16:17;;;;;;;4.57;2.83;;;;;;;;;;5050430;28;20028;-86
2023/08/18 02:18:43;;;;;;;5.07;3.00;;;;;;;;;;5048467;28;20024;-85
2023/08/18 02:21:09;;;;;;;10.77;2.60;;;;;;;;;;5068068;28;20024;-85
2023/08/18 02:23:35;;;;;;;5.25;2.90;;;;;;;;;;5044857;28;20017;-86
2023/08/18 02:26:01;;;;;;;5.85;3.08;;;;;;;;;;5066732;28;20103;-85
2023/08/18 02:28:27;;;;;;;5.35;3.70;;;;;;;;;;5046699;28;20025;-86
2023/08/18 02:31:04;;;;;;;6.07;2.95;;;;;;;;;;5066263;28;20028;-85
2023/08/18 02:33:30;;;;;;;5.47;3.20;;;;;;;;;;5064689;28;20025;-85
2023/08/18 02:35:56;;;;;;;6.05;3.58;;;;;;;;;;5065954;28;20509;-86
2023/08/18 02:38:22;;;;;;;4.70;3.40;;;;;;;;;;5065790;28;20035;-85
2023/08/18 02:40:48;;;;;;;6.15;3.55;;;;;;;;;;5045062;28;20017;-86
2023/08/18 02:43:14;;;;;;;6.78;3.63;;;;;;;;;;5047418;28;20028;-86
2023/08/18 02:45:40;;;;;;;9.35;3.38;;;;;;;;;;5065680;28;20508;-86
2023/08/18 02:48:07;;;;;;;6.82;3.22;;;;;;;;;;5047422;28;20086;-85
2023/08/18 02:50:33;;;;;;;4.68;2.47;;;;;;;;;;5052517;28;20516;-86
2023/08/18 02:53:03;;;;;;;7.88;3.42;;;;;;;;;;5065298;28;20233;-86
2023/08/18 02:55:29;;;;;;;;;;;;;;;;;;5056160;28;20473;-86
2023/08/18 02:57:55;;;;;;;5.13;3.22;;;;;;;;;;5044158;28;19905;-86
2023/08/18 03:00:21;;;;;;;4.50;2.95;;;;;;;;;;5047615;28;20393;-86
2023/08/18 03:02:49;;;;;;;9.93;3.13;;;;;;;;;;5044414;28;20029;-86
2023/08/18 03:05:15;;;;;;;5.88;3.28;;;;;;;;;;5044013;28;20029;-86
2023/08/18 03:07:41;;;;;;;10.13;3.03;;;;;;;;;;5055931;28;20120;-86
2023/08/18 03:10:07;;;;;;;6.10;3.00;;;;;;;;;;5043832;28;20072;-86
2023/08/18 03:12:33;;;;;;;6.30;3.28;;;;;;;;;;5047882;28;20021;-86
2023/08/18 03:14:59;;;;;;;5.70;3.55;;;;;;;;;;5043865;28;20082;-86
2023/08/18 03:17:25;;;;;;;7.78;3.40;;;;;;;;;;5047510;28;20017;-86
2023/08/18 03:19:51;;;;;;;6.18;3.67;;;;;;;;;;5047487;28;20048;-85
2023/08/18 03:22:17;;;;;;;6.45;3.78;;;;;;;;;;5065304;28;20039;-86
2023/08/18 03:24:43;;;;;;;9.70;3.30;;;;;;;;;;5044278;28;20025;-86
2023/08/18 03:27:09;;;;;;;7.00;3.47;;;;;;;;;;5047228;28;20029;-86
2023/08/18 03:29:35;;;;;;;5.53;2.90;;;;;;;;;;5043775;28;20488;-86
2023/08/18 03:32:01;;;;;;;5.68;3.35;;;;;;;;;;5047201;28;20052;-86
2023/08/18 03:34:27;;;;;;;7.03;3.40;;;;;;;;;;5044086;28;20428;-86
2023/08/18 03:36:53;;;;;;;6.38;3.05;;;;;;;;;;5047149;28;20469;-85
2023/08/18 03:39:19;;;;;;;7.18;4.07;;;;;;;;;;5043652;28;20040;-86
2023/08/18 03:41:45;;;;;;;4.90;3.70;;;;;;;;;;5062122;28;20025;-86
2023/08/18 03:44:12;;;;;;;7.78;4.65;;;;;;;;;;5046967;28;20025;-85
2023/08/18 03:46:38;;;;;;;9.27;4.82;;;;;;;;;;5048614;28;20460;-86
2023/08/18 03:49:05;;;;;;;10.60;4.80;;;;;;;;;;5048038;28;20460;-86
2023/08/18 03:51:32;;;;;;;7.50;4.10;;;;;;;;;;5050160;28;20044;-85
2023/08/18 03:53:58;;;;;;;4.53;3.60;;;;;;;;;;5043856;28;20611;-86
2023/08/18 03:56:24;;;;;;;7.13;4.10;;;;;;;;;;5054864;28;20070;-85
2023/08/18 03:58:50;;;;;;;4.93;3.88;;;;;;;;;;5046511;28;20021;-85
2023/08/18 04:01:16;;;;;;;7.85;3.95;;;;;;;;;;5046590;28;20396;-85
2023/08/18 04:03:45;;;;;;;10.63;3.75;;;;;;;;;;5047384;28;20024;-86
2023/08/18 04:06:14;;;;;;;7.43;4.28;;;;;;;;;;5044417;28;20021;-85
2023/08/18 04:08:41;;;;;;;6.67;4.17;;;;;;;;;;5045376;28;20461;-86
2023/08/18 04:11:07;;;;;;;6.20;4.07;;;;;;;;;;5064694;28;20021;-85
2023/08/18 04:13:34;;;;;;;9.10;4.75;;;;;;;;;;5053341;28;20036;-85
2023/08/18 04:16:00;;;;;;;7.70;4.07;;;;;;;;;;5044621;28;20095;-85
2023/08/18 04:18:26;;;;;;;10.65;3.63;;;;;;;;;;5064140;28;20465;-86
2023/08/18 04:20:52;;;;;;;5.63;3.78;;;;;;;;;;5049287;28;20024;-86
2023/08/18 04:23:18;;;;;;;10.20;4.38;;;;;;;;;;5062412;28;20484;-85
2023/08/18 04:25:45;;;;;;;8.70;4.03;;;;;;;;;;5044504;28;20028;-86
2023/08/18 04:28:11;;;;;;;8.95;4.68;;;;;;;;;;5059936;28;20389;-86
2023/08/18 04:30:38;;;;;;;6.22;4.22;;;;;;;;;;5066428;28;20048;-86
2023/08/18 04:33:04;;;;;;;9.27;4.88;;;;;;;;;;5054034;28;20473;-86
2023/08/18 04:35:30;;;;;;;12.13;5.07;;;;;;;;;;5054200;28;20029;-86
2023/08/18 04:37:56;;;;;;;17.70;5.70;;;;;;;;;;5043058;28;20025;-86
2023/08/18 04:40:23;;;;;;;8.05;4.88;;;;;;;;;;5044356;28;20017;-85
2023/08/18 04:42:49;;;;;;;8.02;4.35;;;;;;;;;;5063721;28;20070;-86
2023/08/18 04:45:15;;;;;;;6.95;3.65;;;;;;;;;;5050825;28;20029;-85
2023/08/18 04:47:41;;;;;;;6.13;3.88;;;;;;;;;;5052502;28;20043;-85
2023/08/18 04:50:08;;;;;;;8.18;4.18;;;;;;;;;;5064232;28;20021;-86
2023/08/18 04:52:34;;;;;;;6.75;3.55;;;;;;;;;;5064300;28;20032;-86
2023/08/18 04:55:03;;;;;;;8.65;3.80;;;;;;;;;;5063547;28;20025;-86
2023/08/18 04:57:29;;;;;;;10.75;4.30;;;;;;;;;;5046610;28;20028;-85
2023/08/18 04:59:55;;;;;;;11.60;4.75;;;;;;;;;;5070322;28;20024;-86
2023/08/18 05:02:21;;;;;;;7.55;4.97;;;;;;;;;;5050263;28;20027;-86
2023/08/18 05:04:47;;;;;;;6.85;4.45;;;;;;;;;;5051452;28;20118;-86
2023/08/18 05:07:13;;;;;;;8.38;4.70;;;;;;;;;;5043192;28;20025;-87
2023/08/18 05:09:39;;;;;;;8.63;4.60;;;;;;;;;;5051417;28;20028;-86
2023/08/18 05:12:07;;;;;;;9.63;4.82;;;;;;;;;;5061794;28;20163;-86
2023/08/18 05:14:34;;;;;;;8.82;4.40;;;;;;;;;;5055037;28;20023;-86
2023/08/18 05:16:59;;;;;;;11.52;4.10;;;;;;;;;;5053333;28;20032;-87
2023/08/18 05:19:26;;;;;;;7.25;4.53;;;;;;;;;;5064632;28;20297;-86
2023/08/18 05:21:52;;;;;;;7.05;3.92;;;;;;;;;;5048967;28;20017;-86
2023/08/18 05:24:17;;;;;;;12.15;4.43;;;;;;;;;;5043870;28;20020;-86
2023/08/18 05:26:44;;;;;;;7.43;4.97;;;;;;;;;;5065597;28;20076;-86
2023/08/18 05:29:10;;;;;;;11.68;4.45;;;;;;;;;;5049339;28;20104;-86
2023/08/18 05:31:37;;;;;;;9.85;4.53;;;;;;;;;;5050482;28;20024;-85
2023/08/18 05:34:03;;;;;;;12.05;4.55;;;;;;;;;;5051267;28;20031;-86
2023/08/18 05:36:29;;;;;;;10.45;4.85;;;;;;;;;;5043770;28;20017;-86
2023/08/18 05:38:55;;;;;;;7.03;4.07;;;;;;;;;;5042156;28;20021;-86
2023/08/18 05:41:24;;;;;;;10.20;4.40;;;;;;;;;;5063348;28;20021;-87
2023/08/18 05:43:50;;;;;;;7.88;3.58;;;;;;;;;;5048269;28;20021;-86
2023/08/18 05:46:16;;;;;;;7.68;4.53;;;;;;;;;;5042663;28;20024;-86
2023/08/18 05:48:42;;;;;;;10.30;4.13;;;;;;;;;;5036458;28;20389;-85
2023/08/18 05:51:08;;;;;;;8.88;4.45;;;;;;;;;;5042143;28;20028;-85
2023/08/18 05:53:38;;;;;;;6.00;3.72;;;;;;;;;;5053113;28;20016;-85
2023/08/18 05:56:04;;;;;;;6.75;4.50;;;;;;;;;;5065810;28;20018;-86
2023/08/18 05:58:30;;;;;;;7.50;3.85;;;;;;;;;;5044706;28;20084;-86
2023/08/18 06:00:59;;;;;;;5.25;4.22;;;;;;;;;;5041700;28;20032;-86
2023/08/18 06:03:25;;;;;;;9.75;3.90;;;;;;;;;;5069125;28;20373;-87
2023/08/18 06:05:51;;;;;;;8.32;4.38;;;;;;;;;;5049015;28;20028;-86
2023/08/18 06:08:17;;;;;;;18.40;3.90;;;;;;;;;;5065675;28;20039;-86
2023/08/18 06:10:43;;;;;;;7.13;4.07;;;;;;;;;;5046495;28;20118;-85
2023/08/18 06:13:09;;;;;;;8.00;4.40;;;;;;;;;;5042048;28;20023;-84
2023/08/18 06:15:36;;;;;;;12.15;4.28;;;;;;;;;;5065858;28;20027;-82
2023/08/18 06:18:02;;;;;;;8.70;4.45;;;;;;;;;;5045946;28;20477;-82
2023/08/18 06:20:28;;;;;;;10.43;4.55;;;;;;;;;;5058100;28;20017;-82
2023/08/18 06:22:54;;;;;;;9.07;4.10;;;;;;;;;;5059150;28;20017;-82
2023/08/18 06:25:20;;;;;;;10.70;4.28;;;;;;;;;;5062108;28;20465;-83
2023/08/18 06:27:46;;;;;;;6.88;4.70;;;;;;;;;;5051677;28;20055;-80
2023/08/18 06:30:12;;;;;;;9.20;5.00;;;;;;;;;;5062593;28;20064;-80
2023/08/18 06:32:38;;;;;;;16.70;13.70;;;;;;;;;;5056468;28;20724;-80
2023/08/18 06:35:05;;;;;;;12.93;5.32;;;;;;;;;;5056478;28;20021;-82
2023/08/18 06:37:32;;;;;;;6.97;5.05;;;;;;;;;;5067667;28;20031;-81
2023/08/18 06:39:58;;;;;;;15.32;5.65;;;;;;;;;;5065572;28;20021;-82
2023/08/18 06:42:24;;;;;;;9.43;5.22;;;;;;;;;;5068164;28;20036;-82
2023/08/18 06:44:50;;;;;;;8.48;4.80;;;;;;;;;;5058363;28;20016;-83
2023/08/18 06:47:16;;;;;;;10.25;5.30;;;;;;;;;;5059583;28;20021;-83
2023/08/18 06:49:42;;;;;;;9.00;5.95;;;;;;;;;;5061644;28;20035;-83
2023/08/18 06:52:18;;;;;;;9.68;4.97;;;;;;;;;;5065196;28;20039;-82
2023/08/18 06:54:45;;;;;;;10.82;5.47;;;;;;;;;;5061343;28;20107;-81
2023/08/18 06:57:11;;;;;;;8.57;4.68;;;;;;;;;;5065166;28;20500;-83
2023/08/18 06:59:38;;;;;;;9.75;5.63;;;;;;;;;;5063370;28;20021;-83
2023/08/18 07:02:04;;;;;;;8.00;5.03;;;;;;;;;;5044100;28;20068;-83
2023/08/18 07:04:30;;;;;;;5.53;3.90;;;;;;;;;;5060216;28;20009;-82
2023/08/18 07:06:56;;;;;;;10.60;4.60;;;;;;;;;;5059474;28;20036;-84
2023/08/18 07:09:23;;;;;;;6.45;4.50;;;;;;;;;;5059998;28;20024;-85
2023/08/18 07:11:49;;;;;;;8.75;4.28;;;;;;;;;;5064891;28;20020;-84
2023/08/18 07:14:15;;;;;;;6.15;4.00;;;;;;;;;;5060898;28;20476;-84
2023/08/18 07:16:41;;;;;;;5.43;4.20;;;;;;;;;;5064981;28;20039;-84
2023/08/18 07:19:07;;;;;;;9.88;3.95;;;;;;;;;;5063068;28;20449;-83
2023/08/18 07:21:33;;;;;;;7.13;4.43;;;;;;;;;;5061235;28;20457;-84
2023/08/18 07:23:59;;;;;;;8.10;4.25;;;;;;;;;;5060182;28;20064;-85
2023/08/18 07:26:25;;;;;;;8.15;4.10;;;;;;;;;;5046051;28;20071;-83
2023/08/18 07:28:51;;;;;;;4.97;3.65;;;;;;;;;;5065944;28;20028;-83
2023/08/18 07:31:17;;;;;;;11.65;4.35;;;;;;;;;;5059120;28;20116;-81
2023/08/18 07:33:43;;;;;;;8.38;4.13;;;;;;;;;;5061066;28;20388;-83
2023/08/18 07:36:09;;;;;;;9.02;4.63;;;;;;;;;;5062378;28;20071;-84
2023/08/18 07:38:35;;;;;;;8.05;4.63;;;;;;;;;;5062769;28;20016;-83
2023/08/18 07:41:02;;;;;;;9.50;4.75;;;;;;;;;;5063266;28;20108;-83
2023/08/18 07:43:28;;;;;;;10.77;4.80;;;;;;;;;;5059454;28;20020;-83
2023/08/18 07:45:54;;;;;;;6.43;4.60;;;;;;;;;;5064744;28;20036;-82
2023/08/18 07:48:20;;;;;;;8.63;3.30;;;;;;;;;;5064148;28;20094;-83
2023/08/18 07:50:46;;;;;;;7.57;4.43;;;;;;;;;;5061126;28;20539;-83
2023/08/18 07:53:12;;;;;;;10.10;4.22;;;;;;;;;;5060206;28;20059;-83
2023/08/18 07:55:38;;;;;;;9.70;4.40;;;;;;;;;;5061995;28;20039;-83
2023/08/18 07:58:04;;;;;;;12.10;5.13;;;;;;;;;;5061522;28;20036;-89
2023/08/18 08:00:30;;;;;;;7.70;4.45;;;;;;;;;;5065733;28;20039;-86
2023/08/18 08:02:57;;;;;;;6.65;4.28;;;;;;;;;;5060752;28;20025;-81
2023/08/18 08:05:23;;;;;;;8.20;3.75;;;;;;;;;;5065940;28;20060;-83
2023/08/18 08:07:49;;;;;;;4.80;3.17;;;;;;;;;;5061953;28;20021;-82
2023/08/18 08:10:16;;;;;;;4.97;3.50;;;;;;;;;;5061838;28;20055;-82
2023/08/18 08:12:42;;;;;;;9.93;4.05;;;;;;;;;;5061878;28;20084;-81
2023/08/18 08:15:11;;;;;;;6.95;3.67;;;;;;;;;;5053369;28;20025;-81
2023/08/18 08:17:37;;;;;;;19.47;3.93;;;;;;;;;;5061952;28;20025;-75
2023/08/18 08:20:15;;;;;;;6.13;3.17;;;;;;;;;;5061896;28;20029;-80
2023/08/18 08:22:41;;;;;;;7.40;4.78;;;;;;;;;;5063386;28;20067;-80
2023/08/18 08:25:08;;;;;;;11.35;3.80;;;;;;;;;;5061094;28;20053;-78
2023/08/18 08:27:34;;;;;;;10.90;3.50;;;;;;;;;;5054809;28;20021;-75
2023/08/18 08:30:01;;;;;;;8.73;3.70;;;;;;;;;;5059297;28;20025;-81
2023/08/18 08:32:27;;;;;;;9.25;4.45;;;;;;;;;;5050974;28;20547;-81
2023/08/18 08:34:53;;;;;;;16.02;4.47;;;;;;;;;;5066884;28;20500;-87
2023/08/18 08:37:19;;;;;;;3.80;2.53;;;;;;;;;;5069742;28;20032;-92
2023/08/18 08:39:45;;;;;;;7.30;3.75;;;;;;;;;;5043720;28;20045;-88
2023/08/18 08:42:11;;;;;;;5.50;3.45;;;;;;;;;;5064554;28;20108;-80
2023/08/18 08:44:38;;;;;;;7.47;3.25;;;;;;;;;;5049260;28;20070;-86
2023/08/18 08:47:04;;;;;;;7.93;3.72;;;;;;;;;;5063291;28;20492;-83
2023/08/18 08:49:31;;;;;;;5.72;3.38;;;;;;;;;;5055179;28;20074;-80
2023/08/18 08:52:02;;;;;;;7.75;3.60;;;;;;;;;;5071415;28;20025;-84
2023/08/18 08:54:29;;;;;;;6.57;3.63;;;;;;;;;;5048310;28;20043;-86
2023/08/18 08:56:55;;;;;;;10.55;3.05;;;;;;;;;;5066930;28;20124;-84
2023/08/18 08:59:22;;;;;;;3.05;2.42;;;;;;;;;;5064777;28;20027;-82
2023/08/18 09:01:48;;;;;;;7.65;2.53;;;;;;;;;;5064552;28;20029;-85
2023/08/18 09:04:14;;;;;;;7.50;3.15;;;;;;;;;;5064485;28;20361;-84
2023/08/18 09:06:40;;;;;;;8.73;3.28;;;;;;;;;;5050036;28;20116;-83
2023/08/18 09:09:07;;;;;;;4.68;2.60;;;;;;;;;;5064490;28;20107;-82
2023/08/18 09:11:45;;;;;;;4.97;3.20;;;;;;;;;;5062214;28;20021;-88
2023/08/18 09:14:11;;;;;;;20.65;3.25;;;;;;;;;;5055917;28;20783;-81
2023/08/18 09:16:37;;;;;;;5.47;2.35;;;;;;;;;;5063348;28;20017;-82
2023/08/18 09:19:04;;;;;;;3.15;2.05;;;;;;;;;;5047616;28;20048;-83
2023/08/18 09:21:32;;;;;;;4.32;2.28;;;;;;;;;;5058367;28;20025;-83
2023/08/18 09:23:58;;;;;;;4.13;1.92;;;;;;;;;;5060911;28;20017;-83
2023/08/18 09:26:26;;;;;;;2.78;1.90;;;;;;;;;;5061483;28;20091;-82
2023/08/18 09:28:52;;;;;;;4.15;2.50;;;;;;;;;;5067771;28;20108;-84
2023/08/18 09:31:21;;;;;;;3.65;2.13;;;;;;;;;;5063558;28;20025;-82
2023/08/18 09:33:47;;;;;;;3.33;2.60;;;;;;;;;;5063242;28;20111;-83
2023/08/18 09:36:15;;;;;;;4.47;2.35;;;;;;;;;;5044267;28;20108;-82
2023/08/18 09:38:42;;;;;;;5.18;2.13;;;;;;;;;;5066885;28;20044;-83
2023/08/18 09:41:08;;;;;;;5.07;2.15;;;;;;;;;;5064259;28;20028;-80
2023/08/18 09:43:35;;;;;;;4.95;2.28;;;;;;;;;;5068114;28;20056;-82
2023/08/18 09:46:05;;;;;;;5.40;2.78;;;;;;;;;;5058964;28;20029;-80
2023/08/18 09:48:35;;;;;;;3.78;2.00;;;;;;;;;;5044790;28;20036;-80
2023/08/18 09:51:01;;;;;;;;;;;;;;;;;;5051809;28;20035;-80
2023/08/18 09:53:30;;;;;;;4.38;1.95;;;;;;;;;;5064145;28;20385;-82
2023/08/18 09:55:59;;;;;;;2.80;1.88;;;;;;;;;;5056355;28;20540;-81
2023/08/18 09:58:33;;;;;;;4.43;2.40;;;;;;;;;;5057964;28;20036;-80
2023/08/18 10:00:59;;;;;;;4.22;1.90;;;;;;;;;;5065658;28;20016;-80
2023/08/18 10:03:28;;;;;;;4.07;1.90;;;;;;;;;;5051705;28;20033;-80
2023/08/18 10:05:54;;;;;;;2.60;1.80;;;;;;;;;;5065059;28;20128;-81
2023/08/18 10:08:22;;;;;;;3.17;1.90;;;;;;;;;;5064845;28;20059;-81
2023/08/18 10:10:50;;;;;;;8.23;2.05;;;;;;;;;;5042044;28;20027;-80
2023/08/18 10:13:16;;;;;;;2.03;1.70;;;;;;;;;;5066514;28;20029;-80
2023/08/18 10:15:43;;;;;;;5.85;2.42;;;;;;;;;;5064816;28;20021;-81
2023/08/18 10:18:11;;;;;;;6.57;2.25;;;;;;;;;;5064145;28;20048;-81
2023/08/18 10:20:47;;;;;;;7.65;2.15;;;;;;;;;;5063262;28;20525;-80
2023/08/18 10:23:13;;;;;;;2.65;2.10;;;;;;;;;;5063104;28;20480;-80
2023/08/18 10:25:39;;;;;;;2.45;2.00;;;;;;;;;;5047287;28;20029;-80
2023/08/18 10:28:07;;;;;;;4.13;2.38;;;;;;;;;;5063782;28;20106;-80
2023/08/18 10:30:33;;;;;;;4.15;1.92;;;;;;;;;;5070729;28;20029;-80
2023/08/18 10:33:03;;;;;;;3.90;2.20;;;;;;;;;;5060458;28;20035;-81
2023/08/18 10:35:29;;;;;;;2.28;1.63;;;;;;;;;;5061261;28;20017;-81
2023/08/18 10:37:56;;;;;;;5.78;2.33;;;;;;;;;;5060788;28;20029;-79
2023/08/18 10:40:26;;;;;;;3.05;1.90;;;;;;;;;;5057814;28;20045;-79
2023/08/18 10:42:53;;;;;;;5.72;1.70;;;;;;;;;;5055450;28;20017;-80
2023/08/18 10:45:23;;;;;;;8.32;2.28;;;;;;;;;;5060557;28;20029;-80
2023/08/18 10:47:49;;;;;;;6.43;1.98;;;;;;;;;;5061250;28;20060;-81
2023/08/18 10:50:16;;;;;;;2.40;1.80;;;;;;;;;;5064234;28;20376;-80
2023/08/18 10:52:43;;;;;;;2.17;1.83;;;;;;;;;;5060192;28;20021;-80
2023/08/18 10:55:09;;;;;;;6.53;2.20;;;;;;;;;;5046882;28;20020;-80
2023/08/18 10:57:37;;;;;;;4.47;2.42;;;;;;;;;;5060392;28;20020;-80
2023/08/18 11:00:05;;;;;;;3.35;2.28;;;;;;;;;;5063263;28;20052;-80
2023/08/18 11:02:32;;;;;;;5.72;2.42;;;;;;;;;;5060153;28;20063;-80
2023/08/18 11:04:59;;;;;;;4.88;2.15;;;;;;;;;;5061404;28;20028;-81
2023/08/18 11:07:27;;;;;;;3.75;2.22;;;;;;;;;;5040719;28;20033;-83
2023/08/18 11:09:53;;;;;;;2.67;1.67;;;;;;;;;;5066070;28;20488;-80
2023/08/18 11:12:19;;;;;;;3.60;2.15;;;;;;;;;;5064471;28;20024;-82
2023/08/18 11:14:45;;;;;;;4.18;2.05;;;;;;;;;;5061162;28;20174;-81
2023/08/18 11:17:11;;;;;;;2.00;1.63;;;;;;;;;;5061565;28;20025;-81
2023/08/18 11:19:37;;;;;;;7.85;1.80;;;;;;;;;;5063207;28;20461;-81
2023/08/18 11:22:04;;;;;;;5.30;2.70;;;;;;;;;;5061538;28;20064;-79
2023/08/18 11:24:30;;;;;;;2.70;2.42;;;;;;;;;;5065982;28;20016;-79
2023/08/18 11:26:56;;;;;;;2.65;1.75;;;;;;;;;;5061696;28;20428;-80
2023/08/18 11:29:22;;;;;;;5.40;2.28;;;;;;;;;;5059796;28;20025;-79
2023/08/18 11:31:48;;;;;;;13.15;2.65;;;;;;;;;;5058178;28;20021;-80
2023/08/18 11:34:16;;;;;;;3.38;2.20;;;;;;;;;;5059351;28;20477;-80
2023/08/18 11:36:42;;;;;;;7.15;2.55;;;;;;;;;;5057695;28;20062;-80
2023/08/18 11:39:09;;;;;;;3.28;1.90;;;;;;;;;;5053253;28;20040;-80
2023/08/18 11:41:37;;;;;;;3.35;2.05;;;;;;;;;;5061867;28;20025;-80
2023/08/18 11:44:03;;;;;;;6.07;2.53;;;;;;;;;;5061257;28;20696;-80
2023/08/18 11:46:29;;;;;;;6.25;2.33;;;;;;;;;;5063830;28;20448;-81
2023/08/18 11:48:56;;;;;;;4.18;2.40;;;;;;;;;;5041178;28;20040;-80
2023/08/18 11:51:22;;;;;;;8.45;2.88;;;;;;;;;;5052614;28;20029;-80
2023/08/18 11:53:48;;;;;;;5.70;2.85;;;;;;;;;;5044563;28;20079;-80
2023/08/18 11:56:17;;;;;;;2.83;2.28;;;;;;;;;;5060336;28;20020;-84
2023/08/18 11:58:43;;;;;;;8.88;2.05;;;;;;;;;;5065134;28;20070;-80
2023/08/18 12:01:09;;;;;;;6.75;1.92;;;;;;;;;;5063868;28;20108;-80
2023/08/18 12:03:35;;;;;;;4.22;2.05;;;;;;;;;;5039835;28;20682;-80
2023/08/18 12:06:02;;;;;;;3.20;2.10;;;;;;;;;;5046341;28;20028;-80
2023/08/18 12:08:28;;;;;;;2.15;1.80;;;;;;;;;;5059548;28;20704;-80
2023/08/18 12:10:57;;;;;;;6.07;2.25;;;;;;;;;;5036741;28;20582;-80
2023/08/18 12:13:23;;;;;;;3.17;1.65;;;;;;;;;;5049350;28;20021;-80
2023/08/18 12:15:49;;;;;;;4.07;1.80;;;;;;;;;;5044173;28;20048;-81
2023/08/18 12:18:15;;;;;;;4.18;2.15;;;;;;;;;;5061886;28;20094;-80
2023/08/18 12:20:41;;;;;;;3.28;2.00;;;;;;;;;;5042657;28;20080;-83
2023/08/18 12:23:08;;;;;;;2.50;1.98;;;;;;;;;;5039081;28;20472;-82
2023/08/18 12:25:34;;;;;;;2.83;2.00;;;;;;;;;;5036887;28;20111;-80
2023/08/18 12:28:00;;;;;;;4.68;1.85;;;;;;;;;;5044688;28;20175;-84
2023/08/18 12:30:26;;;;;;;2.67;1.52;;;;;;;;;;5059745;28;20023;-80
2023/08/18 12:32:52;;;;;;;4.82;1.60;;;;;;;;;;5044825;28;20028;-80
2023/08/18 12:35:18;;;;;;;2.25;1.58;;;;;;;;;;5059371;28;20152;-81
2023/08/18 12:37:44;;;;;;;2.33;1.55;;;;;;;;;;5042995;28;20025;-81
2023/08/18 12:40:11;;;;;;;2.53;1.60;;;;;;;;;;5064645;28;20035;-80
2023/08/18 12:42:37;;;;;;;5.30;2.05;;;;;;;;;;5049381;28;20032;-81
2023/08/18 12:45:04;;;;;;;5.50;1.70;;;;;;;;;;5050324;28;20392;-81
2023/08/18 12:47:30;;;;;;;2.65;1.60;;;;;;;;;;5044057;28;20016;-81
2023/08/18 12:49:56;;;;;;;1.83;1.42;;;;;;;;;;5058520;28;20032;-81
2023/08/18 12:52:22;;;;;;;3.78;1.63;;;;;;;;;;5042632;28;20479;-81
2023/08/18 12:54:49;;;;;;;1.77;1.30;;;;;;;;;;5041856;28;20111;-81
2023/08/18 12:57:15;;;;;;;3.33;1.55;;;;;;;;;;5046927;28;20362;-81
2023/08/18 12:59:41;;;;;;;3.72;1.52;;;;;;;;;;5046135;28;20017;-81
2023/08/18 13:02:07;;;;;;;1.58;1.25;;;;;;;;;;5044551;28;20033;-80
2023/08/18 13:04:34;;;;;;;2.53;1.60;;;;;;;;;;5049347;28;20016;-79
2023/08/18 13:07:00;;;;;;;2.75;1.60;;;;;;;;;;5043926;28;20039;-80
2023/08/18 13:09:29;;;;;;;2.15;1.58;;;;;;;;;;5047824;28;20313;-81
2023/08/18 13:11:55;;;;;;;1.87;1.40;;;;;;;;;;5039798;28;20469;-83
2023/08/18 13:14:22;;;;;;;6.07;2.30;;;;;;;;;;5040929;28;20262;-81
2023/08/18 13:16:49;;;;;;;5.55;1.58;;;;;;;;;;5062236;28;20547;-80
2023/08/18 13:19:15;;;;;;;6.00;1.85;;;;;;;;;;5064988;28;20031;-79
2023/08/18 13:21:41;;;;;;;6.13;1.65;;;;;;;;;;5045267;28;20091;-79
2023/08/18 13:24:07;;;;;;;1.45;1.27;;;;;;;;;;5062537;28;20472;-79
2023/08/18 13:26:34;;;;;;;5.20;1.70;;;;;;;;;;5062164;28;20143;-79
2023/08/18 13:29:00;;;;;;;5.15;1.55;;;;;;;;;;5060253;28;20111;-80
2023/08/18 13:31:26;;;;;;;3.92;1.58;;;;;;;;;;5041496;28;20024;-79
2023/08/18 13:33:52;;;;;;;3.70;1.55;;;;;;;;;;5045828;28;20070;-80
2023/08/18 13:36:18;;;;;;;5.82;1.45;;;;;;;;;;5063092;28;20593;-79
2023/08/18 13:38:44;;;;;;;2.30;1.50;;;;;;;;;;5064859;28;20020;-79
2023/08/18 13:41:10;;;;;;;2.10;1.55;;;;;;;;;;5051816;28;20064;-79
2023/08/18 13:43:36;;;;;;;6.80;2.00;;;;;;;;;;5055086;28;20013;-81
2023/08/18 13:46:02;;;;;;;3.78;2.10;;;;;;;;;;5058938;28;20053;-78
2023/08/18 13:48:28;;;;;;;2.88;1.73;;;;;;;;;;5064440;28;20028;-78
2023/08/18 13:50:55;;;;;;;4.03;2.28;;;;;;;;;;5061803;28;20033;-80
2023/08/18 13:53:21;;;;;;;5.68;2.05;;;;;;;;;;5069135;28;20047;-78
2023/08/18 13:55:47;;;;;;;4.40;1.70;;;;;;;;;;5056591;28;20021;-79
2023/08/18 13:58:13;;;;;;;4.63;1.95;;;;;;;;;;5061356;28;20151;-80
2023/08/18 14:00:39;;;;;;;3.00;1.40;;;;;;;;;;5065234;28;20021;-78
2023/08/18 14:03:05;;;;;;;1.77;1.60;;;;;;;;;;5043859;28;20063;-80
2023/08/18 14:05:31;;;;;;;6.00;1.90;;;;;;;;;;5061633;28;20013;-84
2023/08/18 14:07:57;;;;;;;1.55;1.35;;;;;;;;;;5047982;28;20035;-78
2023/08/18 14:10:23;;;;;;;4.43;2.00;;;;;;;;;;5061870;28;20381;-78
2023/08/18 14:12:50;;;;;;;4.63;1.63;;;;;;;;;;5064800;28;20025;-79
2023/08/18 14:15:16;;;;;;;3.83;2.10;;;;;;;;;;5058358;28;20021;-78
2023/08/18 14:17:47;;;;;;;7.65;2.58;;;;;;;;;;5040635;28;20012;-79
2023/08/18 14:20:14;;;;;;;11.93;1.92;;;;;;;;;;5062078;28;20124;-79
2023/08/18 14:22:41;;;;;;;2.10;1.70;;;;;;;;;;5065057;28;20017;-79
2023/08/18 14:25:08;;;;;;;4.75;1.70;;;;;;;;;;5066511;28;20036;-79
2023/08/18 14:27:34;;;;;;;3.03;1.52;;;;;;;;;;5057513;28;20025;-79
2023/08/18 14:29:59;;;;;;;6.35;1.70;;;;;;;;;;5052723;28;20056;-79
2023/08/18 14:32:26;;;;;;;8.45;1.75;;;;;;;;;;5057262;28;20024;-79
2023/08/18 14:34:55;;;;;;;8.18;2.28;;;;;;;;;;5061935;28;20021;-79
2023/08/18 14:37:22;;;;;;;2.00;1.45;;;;;;;;;;5058459;28;20416;-80
2023/08/18 14:39:48;;;;;;;3.25;1.50;;;;;;;;;;5052318;28;20056;-79